Terminal Aerodrome Forecast
Issued by NWS Dallas/Fort Worth, TX

Home | Current Version | Previous Version | Text Only | Print | Product List | Glossary On
Versions: 1 2 3 4 5 6 7 8 9 10 11 12 13 14 15 16 17 18 19 20 21 22 23 24 25 26 27 28 29
000
FTUS44 KFWD 181100
TAFACT
TAF
KACT 181127Z 1812/1912 36004KT 4SM BR BKN025
     FM181600 02006KT P6SM BKN050
     FM181900 05006KT P6SM SCT060
     FM190300 11005KT P6SM SKC=

USA.gov is the U.S. government's official web portal to all federal, state and local government web resources and services.